sensor_id;sensor_type;location;lat;lon;timestamp;pressure;altitude;pressure_sealevel;temperature;humidity
35435;BME280;21556;55.782;37.528;2023-01-29T00:00:07;99935.53;;;-0.74;100.00
35435;BME280;21556;55.782;37.528;2023-01-29T00:02:38;99945.53;;;-0.52;100.00
35435;BME280;21556;55.782;37.528;2023-01-29T00:05:06;99939.09;;;-0.45;100.00
35435;BME280;21556;55.782;37.528;2023-01-29T00:07:32;99945.53;;;-0.52;100.00
35435;BME280;21556;55.782;37.528;2023-01-29T00:09:58;99946.47;;;-0.65;100.00
35435;BME280;21556;55.782;37.528;2023-01-29T00:12:24;99939.19;;;-0.31;100.00
35435;BME280;21556;55.782;37.528;2023-01-29T00:14:50;99937.63;;;-0.68;100.00
35435;BME280;21556;55.782;37.528;2023-01-29T00:17:15;99945.06;;;-0.86;100.00
35435;BME280;21556;55.782;37.528;2023-01-29T00:19:41;99927.38;;;-0.40;100.00
35435;BME280;21556;55.782;37.528;2023-01-29T00:22:07;99927.00;;;-0.60;100.00
35435;BME280;21556;55.782;37.528;2023-01-29T00:24:33;99925.88;;;-0.37;100.00
35435;BME280;21556;55.782;37.528;2023-01-29T00:26:59;99925.13;;;-0.62;100.00
35435;BME280;21556;55.782;37.528;2023-01-29T00:29:25;99927.91;;;-0.33;100.00
35435;BME280;21556;55.782;37.528;2023-01-29T00:31:51;99922.16;;;-0.42;100.00
35435;BME280;21556;55.782;37.528;2023-01-29T00:34:17;99911.22;;;-0.38;100.00
35435;BME280;21556;55.782;37.528;2023-01-29T00:36:43;99916.44;;;-0.23;100.00
35435;BME280;21556;55.782;37.528;2023-01-29T00:39:11;99915.94;;;-0.72;100.00
35435;BME280;21556;55.782;37.528;2023-01-29T00:41:37;99919.38;;;-0.58;100.00
35435;BME280;21556;55.782;37.528;2023-01-29T00:44:21;99914.72;;;-0.64;100.00
35435;BME280;21556;55.782;37.528;2023-01-29T00:47:06;99906.41;;;-0.46;100.00
35435;BME280;21556;55.782;37.528;2023-01-29T00:49:50;99906.59;;;-0.57;100.00
35435;BME280;21556;55.782;37.528;2023-01-29T00:52:16;99909.69;;;-0.76;100.00
35435;BME280;21556;55.782;37.528;2023-01-29T00:54:52;99909.09;;;-0.71;100.00
35435;BME280;21556;55.782;37.528;2023-01-29T00:57:18;99907.09;;;-0.89;100.00
35435;BME280;21556;55.782;37.528;2023-01-29T00:59:44;99913.63;;;-0.81;100.00
35435;BME280;21556;55.782;37.528;2023-01-29T01:02:11;99911.06;;;-0.67;100.00
35435;BME280;21556;55.782;37.528;2023-01-29T01:04:58;99920.69;;;-0.78;100.00
35435;BME280;21556;55.782;37.528;2023-01-29T01:07:27;99902.84;;;-0.88;100.00
35435;BME280;21556;55.782;37.528;2023-01-29T01:09:54;99905.63;;;-0.85;100.00
35435;BME280;21556;55.782;37.528;2023-01-29T01:12:38;99899.84;;;-0.94;100.00
35435;BME280;21556;55.782;37.528;2023-01-29T01:15:04;99898.38;;;-0.91;100.00
35435;BME280;21556;55.782;37.528;2023-01-29T01:17:30;99902.25;;;-1.11;100.00
35435;BME280;21556;55.782;37.528;2023-01-29T01:19:56;99900.94;;;-1.17;100.00
35435;BME280;21556;55.782;37.528;2023-01-29T01:22:22;99900.97;;;-1.04;100.00
35435;BME280;21556;55.782;37.528;2023-01-29T01:24:48;99905.13;;;-0.93;100.00
35435;BME280;21556;55.782;37.528;2023-01-29T01:27:16;99914.44;;;-0.68;100.00
35435;BME280;21556;55.782;37.528;2023-01-29T01:29:47;99910.97;;;-0.95;100.00
35435;BME280;21556;55.782;37.528;2023-01-29T01:32:13;99902.53;;;-0.66;100.00
35435;BME280;21556;55.782;37.528;2023-01-29T01:34:40;99899.97;;;-1.06;100.00
35435;BME280;21556;55.782;37.528;2023-01-29T01:37:06;99894.63;;;-0.96;100.00
35435;BME280;21556;55.782;37.528;2023-01-29T01:39:33;99896.00;;;-0.88;100.00
35435;BME280;21556;55.782;37.528;2023-01-29T01:41:58;99896.19;;;-1.25;100.00
35435;BME280;21556;55.782;37.528;2023-01-29T01:47:16;99884.09;;;-0.59;100.00
35435;BME280;21556;55.782;37.528;2023-01-29T01:49:45;99892.34;;;-0.78;100.00
35435;BME280;21556;55.782;37.528;2023-01-29T01:52:12;99894.59;;;-1.09;100.00
35435;BME280;21556;55.782;37.528;2023-01-29T01:54:41;99883.13;;;-0.75;100.00
35435;BME280;21556;55.782;37.528;2023-01-29T01:57:13;99875.50;;;-1.00;100.00
35435;BME280;21556;55.782;37.528;2023-01-29T01:59:50;99866.66;;;-0.63;100.00
35435;BME280;21556;55.782;37.528;2023-01-29T02:02:19;99871.63;;;-0.66;100.00
35435;BME280;21556;55.782;37.528;2023-01-29T02:05:03;99871.63;;;-0.66;100.00
35435;BME280;21556;55.782;37.528;2023-01-29T02:07:49;99863.66;;;-0.43;100.00
35435;BME280;21556;55.782;37.528;2023-01-29T02:10:45;99862.16;;;-0.94;100.00
35435;BME280;21556;55.782;37.528;2023-01-29T02:13:13;99865.28;;;-1.38;100.00
35435;BME280;21556;55.782;37.528;2023-01-29T02:15:41;99863.31;;;-1.29;100.00
35435;BME280;21556;55.782;37.528;2023-01-29T02:18:12;99855.97;;;-1.09;100.00
35435;BME280;21556;55.782;37.528;2023-01-29T02:20:41;99859.16;;;-1.27;100.00
35435;BME280;21556;55.782;37.528;2023-01-29T02:23:25;99848.88;;;-1.27;100.00
35435;BME280;21556;55.782;37.528;2023-01-29T02:26:24;99843.09;;;-1.09;100.00
35435;BME280;21556;55.782;37.528;2023-01-29T02:37:44;99836.63;;;-0.63;100.00
35435;BME280;21556;55.782;37.528;2023-01-29T02:40:28;99832.00;;;-0.68;100.00
35435;BME280;21556;55.782;37.528;2023-01-29T02:46:07;99829.91;;;-0.74;100.00
35435;BME280;21556;55.782;37.528;2023-01-29T02:48:46;99819.59;;;-0.74;100.00
35435;BME280;21556;55.782;37.528;2023-01-29T02:51:19;99797.66;;;-1.09;100.00
35435;BME280;21556;55.782;37.528;2023-01-29T02:54:02;99805.28;;;-0.97;100.00
35435;BME280;21556;55.782;37.528;2023-01-29T02:56:54;99805.69;;;-1.04;100.00
35435;BME280;21556;55.782;37.528;2023-01-29T02:59:25;99803.78;;;-1.07;100.00
35435;BME280;21556;55.782;37.528;2023-01-29T03:02:03;99798.56;;;-0.54;100.00
35435;BME280;21556;55.782;37.528;2023-01-29T03:04:35;99797.06;;;-0.50;100.00
35435;BME280;21556;55.782;37.528;2023-01-29T03:07:06;99788.91;;;-0.84;100.00
35435;BME280;21556;55.782;37.528;2023-01-29T03:09:40;99795.78;;;-0.57;100.00
35435;BME280;21556;55.782;37.528;2023-01-29T03:12:33;99790.09;;;-0.51;100.00
35435;BME280;21556;55.782;37.528;2023-01-29T03:15:07;99782.72;;;-1.01;100.00
35435;BME280;21556;55.782;37.528;2023-01-29T03:17:49;99779.19;;;-0.88;100.00
35435;BME280;21556;55.782;37.528;2023-01-29T03:20:18;99776.19;;;-0.68;100.00
35435;BME280;21556;55.782;37.528;2023-01-29T03:23:13;99768.88;;;-0.75;100.00
35435;BME280;21556;55.782;37.528;2023-01-29T03:25:37;99767.72;;;-0.93;100.00
35435;BME280;21556;55.782;37.528;2023-01-29T03:28:28;99761.59;;;-0.54;100.00
35435;BME280;21556;55.782;37.528;2023-01-29T03:31:13;99752.72;;;-0.73;100.00
35435;BME280;21556;55.782;37.528;2023-01-29T03:34:11;99737.06;;;-0.47;100.00
35435;BME280;21556;55.782;37.528;2023-01-29T03:37:03;99738.91;;;-0.60;100.00
35435;BME280;21556;55.782;37.528;2023-01-29T03:39:35;99744.25;;;-0.57;100.00
35435;BME280;21556;55.782;37.528;2023-01-29T03:45:20;99724.09;;;-0.49;100.00
35435;BME280;21556;55.782;37.528;2023-01-29T03:48:10;99716.59;;;-0.59;100.00
35435;BME280;21556;55.782;37.528;2023-01-29T03:50:51;99718.03;;;-0.78;100.00
35435;BME280;21556;55.782;37.528;2023-01-29T03:53:24;99709.97;;;-0.41;100.00
35435;BME280;21556;55.782;37.528;2023-01-29T03:56:08;99715.28;;;-0.81;100.00
35435;BME280;21556;55.782;37.528;2023-01-29T03:58:46;99709.16;;;-0.83;100.00
35435;BME280;21556;55.782;37.528;2023-01-29T04:01:24;99708.81;;;-0.74;100.00
35435;BME280;21556;55.782;37.528;2023-01-29T04:03:57;99703.16;;;-0.97;100.00
35435;BME280;21556;55.782;37.528;2023-01-29T04:06:33;99696.06;;;-0.73;100.00
35435;BME280;21556;55.782;37.528;2023-01-29T04:09:17;99699.47;;;-0.87;100.00
35435;BME280;21556;55.782;37.528;2023-01-29T04:11:53;99701.31;;;-0.84;100.00
35435;BME280;21556;55.782;37.528;2023-01-29T04:14:22;99688.78;;;-0.65;100.00
35435;BME280;21556;55.782;37.528;2023-01-29T04:16:53;99686.22;;;-0.50;100.00
35435;BME280;21556;55.782;37.528;2023-01-29T04:19:44;99692.25;;;-0.64;100.00
35435;BME280;21556;55.782;37.528;2023-01-29T04:22:18;99684.97;;;-0.57;100.00
35435;BME280;21556;55.782;37.528;2023-01-29T04:24:46;99681.16;;;-0.49;100.00
35435;BME280;21556;55.782;37.528;2023-01-29T04:27:32;99683.84;;;-0.47;100.00
35435;BME280;21556;55.782;37.528;2023-01-29T04:33:12;99680.78;;;-0.55;100.00
35435;BME280;21556;55.782;37.528;2023-01-29T04:38:45;99676.28;;;-0.87;100.00
35435;BME280;21556;55.782;37.528;2023-01-29T04:49:08;99686.25;;;-0.78;100.00
35435;BME280;21556;55.782;37.528;2023-01-29T04:58:31;99669.84;;;-0.65;100.00
35435;BME280;21556;55.782;37.528;2023-01-29T05:00:43;99668.78;;;-0.69;100.00
35435;BME280;21556;55.782;37.528;2023-01-29T05:03:12;99653.56;;;-0.79;100.00
35435;BME280;21556;55.782;37.528;2023-01-29T05:05:41;99656.06;;;-0.66;100.00
35435;BME280;21556;55.782;37.528;2023-01-29T05:08:16;99667.63;;;-0.59;100.00
35435;BME280;21556;55.782;37.528;2023-01-29T05:10:46;99657.63;;;-0.40;100.00
35435;BME280;21556;55.782;37.528;2023-01-29T05:13:14;99660.44;;;-0.65;100.00
35435;BME280;21556;55.782;37.528;2023-01-29T05:16:24;99661.78;;;-0.85;100.00
35435;BME280;21556;55.782;37.528;2023-01-29T05:18:52;99664.97;;;-0.89;100.00
35435;BME280;21556;55.782;37.528;2023-01-29T05:21:19;99669.94;;;-0.92;100.00
35435;BME280;21556;55.782;37.528;2023-01-29T05:24:23;99656.50;;;-0.73;100.00
35435;BME280;21556;55.782;37.528;2023-01-29T05:26:51;99669.53;;;-0.85;100.00
35435;BME280;21556;55.782;37.528;2023-01-29T05:29:36;99666.41;;;-0.94;100.00
35435;BME280;21556;55.782;37.528;2023-01-29T05:32:03;99667.75;;;-0.86;100.00
35435;BME280;21556;55.782;37.528;2023-01-29T05:34:29;99668.00;;;-1.09;100.00
35435;BME280;21556;55.782;37.528;2023-01-29T05:36:55;99661.50;;;-0.61;100.00
35435;BME280;21556;55.782;37.528;2023-01-29T05:39:21;99655.28;;;-0.65;100.00
35435;BME280;21556;55.782;37.528;2023-01-29T05:41:47;99656.63;;;-0.57;100.00
35435;BME280;21556;55.782;37.528;2023-01-29T05:44:12;99662.28;;;-0.62;100.00
35435;BME280;21556;55.782;37.528;2023-01-29T05:46:38;99667.09;;;-0.68;100.00
35435;BME280;21556;55.782;37.528;2023-01-29T05:49:04;99663.63;;;-0.69;100.00
35435;BME280;21556;55.782;37.528;2023-01-29T05:51:30;99662.78;;;-0.83;100.00
35435;BME280;21556;55.782;37.528;2023-01-29T05:53:56;99667.19;;;-0.95;100.00
35435;BME280;21556;55.782;37.528;2023-01-29T05:56:22;99666.25;;;-0.82;100.00
35435;BME280;21556;55.782;37.528;2023-01-29T05:58:49;99663.44;;;-0.72;100.00
35435;BME280;21556;55.782;37.528;2023-01-29T06:01:18;99670.00;;;-0.62;100.00
35435;BME280;21556;55.782;37.528;2023-01-29T06:03:44;99668.16;;;-0.65;100.00
35435;BME280;21556;55.782;37.528;2023-01-29T06:06:11;99666.78;;;-0.73;100.00
35435;BME280;21556;55.782;37.528;2023-01-29T06:08:37;99666.22;;;-0.69;100.00
35435;BME280;21556;55.782;37.528;2023-01-29T06:11:03;99662.97;;;-0.80;100.00
35435;BME280;21556;55.782;37.528;2023-01-29T06:13:31;99666.75;;;-0.88;100.00
35435;BME280;21556;55.782;37.528;2023-01-29T06:15:57;99673.28;;;-1.21;100.00
35435;BME280;21556;55.782;37.528;2023-01-29T06:18:25;99665.44;;;-0.81;100.00
35435;BME280;21556;55.782;37.528;2023-01-29T06:20:51;99653.19;;;-0.85;100.00
35435;BME280;21556;55.782;37.528;2023-01-29T06:23:17;99653.88;;;-0.88;100.00
35435;BME280;21556;55.782;37.528;2023-01-29T06:25:44;99639.38;;;-0.73;100.00
35435;BME280;21556;55.782;37.528;2023-01-29T06:28:10;99645.09;;;-0.77;100.00
35435;BME280;21556;55.782;37.528;2023-01-29T06:30:38;99645.72;;;-0.81;100.00
35435;BME280;21556;55.782;37.528;2023-01-29T06:33:04;99641.19;;;-0.85;100.00
35435;BME280;21556;55.782;37.528;2023-01-29T06:35:30;99650.13;;;-0.65;100.00
35435;BME280;21556;55.782;37.528;2023-01-29T06:37:56;99652.28;;;-0.58;100.00
35435;BME280;21556;55.782;37.528;2023-01-29T06:40:21;99643.63;;;-0.58;100.00
35435;BME280;21556;55.782;37.528;2023-01-29T06:42:47;99649.03;;;-0.83;100.00
35435;BME280;21556;55.782;37.528;2023-01-29T06:45:13;99650.84;;;-0.53;100.00
35435;BME280;21556;55.782;37.528;2023-01-29T06:47:39;99637.31;;;-0.78;100.00
35435;BME280;21556;55.782;37.528;2023-01-29T06:50:31;99636.19;;;-0.68;100.00
35435;BME280;21556;55.782;37.528;2023-01-29T06:53:03;99621.84;;;-0.78;100.00
35435;BME280;21556;55.782;37.528;2023-01-29T06:55:29;99624.66;;;-0.88;100.00
35435;BME280;21556;55.782;37.528;2023-01-29T06:57:55;99622.31;;;-0.56;100.00
35435;BME280;21556;55.782;37.528;2023-01-29T07:00:21;99611.94;;;-0.57;100.00
35435;BME280;21556;55.782;37.528;2023-01-29T07:02:50;99609.25;;;-0.59;100.00
35435;BME280;21556;55.782;37.528;2023-01-29T07:05:16;99606.84;;;-0.56;100.00
35435;BME280;21556;55.782;37.528;2023-01-29T07:07:43;99602.59;;;-0.55;100.00
35435;BME280;21556;55.782;37.528;2023-01-29T07:10:09;99595.03;;;-0.52;100.00
35435;BME280;21556;55.782;37.528;2023-01-29T07:12:35;99593.19;;;-0.40;100.00
35435;BME280;21556;55.782;37.528;2023-01-29T07:15:01;99605.72;;;-0.46;100.00
35435;BME280;21556;55.782;37.528;2023-01-29T07:17:28;99612.13;;;-0.39;100.00
35435;BME280;21556;55.782;37.528;2023-01-29T07:19:54;99602.50;;;-0.42;100.00
35435;BME280;21556;55.782;37.528;2023-01-29T07:22:20;99605.16;;;-0.40;100.00
35435;BME280;21556;55.782;37.528;2023-01-29T07:24:47;99601.63;;;-0.42;100.00
35435;BME280;21556;55.782;37.528;2023-01-29T07:27:14;99596.00;;;-0.80;100.00
35435;BME280;21556;55.782;37.528;2023-01-29T07:29:41;99599.22;;;-0.54;100.00
35435;BME280;21556;55.782;37.528;2023-01-29T07:32:08;99593.88;;;-0.28;100.00
35435;BME280;21556;55.782;37.528;2023-01-29T07:34:34;99591.31;;;-0.42;100.00
35435;BME280;21556;55.782;37.528;2023-01-29T07:37:02;99587.66;;;-0.46;100.00
35435;BME280;21556;55.782;37.528;2023-01-29T07:39:31;99585.16;;;-0.44;100.00
35435;BME280;21556;55.782;37.528;2023-01-29T07:41:59;99594.84;;;-0.55;100.00
35435;BME280;21556;55.782;37.528;2023-01-29T07:44:27;99584.91;;;-0.49;100.00
35435;BME280;21556;55.782;37.528;2023-01-29T07:46:53;99585.34;;;-0.41;100.00
35435;BME280;21556;55.782;37.528;2023-01-29T07:49:20;99574.59;;;-0.34;100.00
35435;BME280;21556;55.782;37.528;2023-01-29T07:51:46;99564.63;;;-0.13;100.00
35435;BME280;21556;55.782;37.528;2023-01-29T07:54:11;99562.94;;;-0.13;100.00
35435;BME280;21556;55.782;37.528;2023-01-29T07:56:37;99569.53;;;-0.18;100.00
35435;BME280;21556;55.782;37.528;2023-01-29T07:59:03;99565.69;;;-0.10;100.00
35435;BME280;21556;55.782;37.528;2023-01-29T08:01:29;99580.81;;;-0.45;100.00
35435;BME280;21556;55.782;37.528;2023-01-29T08:03:55;99568.19;;;-0.41;100.00
35435;BME280;21556;55.782;37.528;2023-01-29T08:06:21;99569.53;;;-0.47;100.00
35435;BME280;21556;55.782;37.528;2023-01-29T08:08:47;99563.16;;;-0.39;100.00
35435;BME280;21556;55.782;37.528;2023-01-29T08:11:13;99553.34;;;-0.45;100.00
35435;BME280;21556;55.782;37.528;2023-01-29T08:13:40;99553.28;;;-0.46;100.00
35435;BME280;21556;55.782;37.528;2023-01-29T08:16:06;99558.06;;;-0.38;100.00
35435;BME280;21556;55.782;37.528;2023-01-29T08:18:32;99550.94;;;-0.27;100.00
35435;BME280;21556;55.782;37.528;2023-01-29T08:20:59;99550.56;;;-0.18;100.00
35435;BME280;21556;55.782;37.528;2023-01-29T08:23:27;99542.72;;;-0.05;100.00
35435;BME280;21556;55.782;37.528;2023-01-29T08:25:53;99549.94;;;-0.29;100.00
35435;BME280;21556;55.782;37.528;2023-01-29T08:28:19;99545.84;;;-0.26;100.00
35435;BME280;21556;55.782;37.528;2023-01-29T08:30:46;99540.38;;;-0.32;100.00
35435;BME280;21556;55.782;37.528;2023-01-29T08:33:12;99541.22;;;-0.16;100.00
35435;BME280;21556;55.782;37.528;2023-01-29T08:35:37;99565.28;;;-0.32;100.00
35435;BME280;21556;55.782;37.528;2023-01-29T08:38:06;99546.75;;;-0.10;100.00
35435;BME280;21556;55.782;37.528;2023-01-29T08:40:33;99546.78;;;0.06;100.00
35435;BME280;21556;55.782;37.528;2023-01-29T08:43:05;99548.69;;;-0.06;100.00
35435;BME280;21556;55.782;37.528;2023-01-29T08:45:35;99542.19;;;0.01;100.00
35435;BME280;21556;55.782;37.528;2023-01-29T08:48:02;99546.25;;;0.12;100.00
35435;BME280;21556;55.782;37.528;2023-01-29T08:50:28;99539.41;;;0.12;100.00
35435;BME280;21556;55.782;37.528;2023-01-29T08:53:03;99547.38;;;-0.14;100.00
35435;BME280;21556;55.782;37.528;2023-01-29T08:55:34;99547.72;;;-0.23;100.00
35435;BME280;21556;55.782;37.528;2023-01-29T08:58:03;99543.75;;;-0.18;100.00
35435;BME280;21556;55.782;37.528;2023-01-29T09:00:29;99536.03;;;-0.02;100.00
35435;BME280;21556;55.782;37.528;2023-01-29T09:02:55;99539.03;;;0.06;100.00
35435;BME280;21556;55.782;37.528;2023-01-29T09:05:21;99537.88;;;0.16;100.00
35435;BME280;21556;55.782;37.528;2023-01-29T09:07:46;99528.22;;;-0.03;100.00
35435;BME280;21556;55.782;37.528;2023-01-29T09:10:12;99529.44;;;0.04;100.00
35435;BME280;21556;55.782;37.528;2023-01-29T09:12:38;99521.91;;;-0.08;100.00
35435;BME280;21556;55.782;37.528;2023-01-29T09:15:04;99533.56;;;0.00;100.00
35435;BME280;21556;55.782;37.528;2023-01-29T09:17:30;99530.47;;;-0.09;100.00
35435;BME280;21556;55.782;37.528;2023-01-29T09:19:57;99532.50;;;-0.04;100.00
35435;BME280;21556;55.782;37.528;2023-01-29T09:22:23;99525.31;;;-0.09;100.00
35435;BME280;21556;55.782;37.528;2023-01-29T09:24:49;99524.78;;;-0.18;100.00
35435;BME280;21556;55.782;37.528;2023-01-29T09:27:14;99521.59;;;-0.14;100.00
35435;BME280;21556;55.782;37.528;2023-01-29T09:29:41;99531.09;;;-0.13;100.00
35435;BME280;21556;55.782;37.528;2023-01-29T09:32:09;99516.13;;;-0.04;100.00
35435;BME280;21556;55.782;37.528;2023-01-29T09:34:35;99515.88;;;-0.40;100.00
35435;BME280;21556;55.782;37.528;2023-01-29T09:37:01;99507.47;;;-0.21;100.00
35435;BME280;21556;55.782;37.528;2023-01-29T09:39:27;99503.69;;;-0.11;100.00
35435;BME280;21556;55.782;37.528;2023-01-29T09:42:06;99509.06;;;-0.23;100.00
35435;BME280;21556;55.782;37.528;2023-01-29T09:47:12;99507.44;;;-0.06;100.00
35435;BME280;21556;55.782;37.528;2023-01-29T09:49:44;99497.28;;;-0.03;100.00
35435;BME280;21556;55.782;37.528;2023-01-29T09:52:29;99491.06;;;-0.07;100.00
35435;BME280;21556;55.782;37.528;2023-01-29T09:57:44;99483.34;;;-0.07;100.00
35435;BME280;21556;55.782;37.528;2023-01-29T10:05:59;99474.25;;;-0.15;100.00
35435;BME280;21556;55.782;37.528;2023-01-29T10:14:12;99459.09;;;0.06;100.00
35435;BME280;21556;55.782;37.528;2023-01-29T10:16:43;99453.91;;;-0.10;100.00
35435;BME280;21556;55.782;37.528;2023-01-29T10:24:35;99425.75;;;0.26;100.00
35435;BME280;21556;55.782;37.528;2023-01-29T10:27:11;99415.25;;;0.22;100.00
35435;BME280;21556;55.782;37.528;2023-01-29T10:29:41;99412.34;;;0.16;100.00
35435;BME280;21556;55.782;37.528;2023-01-29T10:32:13;99411.34;;;0.14;100.00
35435;BME280;21556;55.782;37.528;2023-01-29T10:34:44;99409.28;;;0.23;100.00
35435;BME280;21556;55.782;37.528;2023-01-29T10:37:18;99398.16;;;0.08;100.00
35435;BME280;21556;55.782;37.528;2023-01-29T10:39:47;99388.78;;;0.10;100.00
35435;BME280;21556;55.782;37.528;2023-01-29T10:42:45;99372.81;;;0.34;100.00
35435;BME280;21556;55.782;37.528;2023-01-29T10:53:42;99374.44;;;0.48;100.00
35435;BME280;21556;55.782;37.528;2023-01-29T10:59:31;99370.72;;;0.10;100.00
35435;BME280;21556;55.782;37.528;2023-01-29T11:02:01;99360.75;;;0.33;100.00
35435;BME280;21556;55.782;37.528;2023-01-29T11:04:29;99367.56;;;0.48;100.00
35435;BME280;21556;55.782;37.528;2023-01-29T11:06:57;99367.97;;;0.40;100.00
35435;BME280;21556;55.782;37.528;2023-01-29T11:09:32;99354.28;;;0.41;100.00
35435;BME280;21556;55.782;37.528;2023-01-29T11:12:33;99355.38;;;0.46;100.00
35435;BME280;21556;55.782;37.528;2023-01-29T11:17:31;99353.94;;;0.35;100.00
35435;BME280;21556;55.782;37.528;2023-01-29T11:19:57;99340.16;;;0.18;100.00
35435;BME280;21556;55.782;37.528;2023-01-29T11:22:26;99353.66;;;0.12;100.00
35435;BME280;21556;55.782;37.528;2023-01-29T11:27:48;99342.50;;;0.30;100.00
35435;BME280;21556;55.782;37.528;2023-01-29T11:30:20;99353.81;;;-0.01;100.00
35435;BME280;21556;55.782;37.528;2023-01-29T11:33:04;99342.28;;;0.09;100.00
35435;BME280;21556;55.782;37.528;2023-01-29T11:35:32;99345.59;;;0.57;100.00
35435;BME280;21556;55.782;37.528;2023-01-29T11:40:45;99345.31;;;0.34;100.00
35435;BME280;21556;55.782;37.528;2023-01-29T11:43:28;99332.91;;;0.61;100.00
35435;BME280;21556;55.782;37.528;2023-01-29T11:46:03;99332.75;;;0.24;100.00
35435;BME280;21556;55.782;37.528;2023-01-29T11:48:49;99325.38;;;-0.03;100.00
35435;BME280;21556;55.782;37.528;2023-01-29T11:51:28;99331.69;;;0.37;100.00
35435;BME280;21556;55.782;37.528;2023-01-29T11:53:59;99329.53;;;0.28;100.00
35435;BME280;21556;55.782;37.528;2023-01-29T11:58:58;99320.84;;;0.26;100.00
35435;BME280;21556;55.782;37.528;2023-01-29T12:01:35;99321.50;;;0.40;100.00
35435;BME280;21556;55.782;37.528;2023-01-29T12:04:03;99316.06;;;0.34;100.00
35435;BME280;21556;55.782;37.528;2023-01-29T12:06:41;99321.41;;;0.55;100.00
35435;BME280;21556;55.782;37.528;2023-01-29T12:09:13;99317.03;;;0.54;100.00
35435;BME280;21556;55.782;37.528;2023-01-29T12:11:40;99321.78;;;0.28;100.00
35435;BME280;21556;55.782;37.528;2023-01-29T12:14:29;99315.97;;;0.32;100.00
35435;BME280;21556;55.782;37.528;2023-01-29T12:17:06;99320.34;;;0.17;100.00
35435;BME280;21556;55.782;37.528;2023-01-29T12:19:50;99309.47;;;0.06;100.00
35435;BME280;21556;55.782;37.528;2023-01-29T12:22:39;99318.25;;;0.10;100.00
35435;BME280;21556;55.782;37.528;2023-01-29T12:25:37;99322.25;;;0.37;100.00
35435;BME280;21556;55.782;37.528;2023-01-29T12:30:40;99321.28;;;0.35;100.00
35435;BME280;21556;55.782;37.528;2023-01-29T12:33:33;99322.84;;;0.15;100.00
35435;BME280;21556;55.782;37.528;2023-01-29T12:36:12;99321.00;;;0.13;100.00
35435;BME280;21556;55.782;37.528;2023-01-29T12:38:39;99310.75;;;0.14;100.00
35435;BME280;21556;55.782;37.528;2023-01-29T12:41:30;99317.31;;;0.08;100.00
35435;BME280;21556;55.782;37.528;2023-01-29T12:44:06;99326.31;;;0.16;100.00
35435;BME280;21556;55.782;37.528;2023-01-29T12:46:39;99317.44;;;0.11;100.00
35435;BME280;21556;55.782;37.528;2023-01-29T12:49:18;99318.00;;;0.21;100.00
35435;BME280;21556;55.782;37.528;2023-01-29T12:54:39;99320.00;;;0.27;100.00
35435;BME280;21556;55.782;37.528;2023-01-29T12:57:13;99325.59;;;0.02;100.00
35435;BME280;21556;55.782;37.528;2023-01-29T13:00:12;99320.59;;;0.05;100.00
35435;BME280;21556;55.782;37.528;2023-01-29T13:02:54;99318.00;;;0.21;100.00
35435;BME280;21556;55.782;37.528;2023-01-29T13:05:27;99319.31;;;0.13;100.00
35435;BME280;21556;55.782;37.528;2023-01-29T13:08:31;99309.03;;;0.31;100.00
35435;BME280;21556;55.782;37.528;2023-01-29T13:11:05;99304.97;;;0.36;100.00
35435;BME280;21556;55.782;37.528;2023-01-29T13:13:42;99293.78;;;0.36;100.00
35435;BME280;21556;55.782;37.528;2023-01-29T13:16:20;99293.56;;;0.31;100.00
35435;BME280;21556;55.782;37.528;2023-01-29T13:18:55;99301.22;;;0.30;100.00
35435;BME280;21556;55.782;37.528;2023-01-29T13:21:28;99298.94;;;0.02;100.00
35435;BME280;21556;55.782;37.528;2023-01-29T13:23:58;99286.59;;;0.12;100.00
35435;BME280;21556;55.782;37.528;2023-01-29T13:26:27;99292.06;;;0.02;100.00
35435;BME280;21556;55.782;37.528;2023-01-29T13:28:56;99287.63;;;0.16;100.00
35435;BME280;21556;55.782;37.528;2023-01-29T13:31:32;99294.00;;;0.22;100.00
35435;BME280;21556;55.782;37.528;2023-01-29T13:34:13;99295.25;;;0.14;100.00
35435;BME280;21556;55.782;37.528;2023-01-29T13:36:52;99300.09;;;0.24;100.00
35435;BME280;21556;55.782;37.528;2023-01-29T13:41:57;99289.81;;;-0.08;100.00
35435;BME280;21556;55.782;37.528;2023-01-29T13:44:37;99286.91;;;0.18;100.00
35435;BME280;21556;55.782;37.528;2023-01-29T13:47:06;99288.56;;;0.34;100.00
35435;BME280;21556;55.782;37.528;2023-01-29T13:49:44;99268.09;;;0.21;100.00
35435;BME280;21556;55.782;37.528;2023-01-29T13:52:18;99288.56;;;0.18;100.00
35435;BME280;21556;55.782;37.528;2023-01-29T13:54:55;99285.44;;;0.07;100.00
35435;BME280;21556;55.782;37.528;2023-01-29T13:57:55;99285.63;;;-0.06;100.00
35435;BME280;21556;55.782;37.528;2023-01-29T14:13:45;99258.66;;;-0.13;100.00
35435;BME280;21556;55.782;37.528;2023-01-29T14:18:57;99253.94;;;0.13;100.00
35435;BME280;21556;55.782;37.528;2023-01-29T14:21:29;99260.63;;;0.09;100.00
35435;BME280;21556;55.782;37.528;2023-01-29T14:24:08;99262.75;;;0.00;100.00
35435;BME280;21556;55.782;37.528;2023-01-29T14:26:40;99255.50;;;-0.07;100.00
35435;BME280;21556;55.782;37.528;2023-01-29T14:29:26;99259.25;;;-0.01;100.00
35435;BME280;21556;55.782;37.528;2023-01-29T14:32:37;99256.50;;;-0.21;100.00
35435;BME280;21556;55.782;37.528;2023-01-29T14:35:48;99253.38;;;0.02;100.00
35435;BME280;21556;55.782;37.528;2023-01-29T14:38:15;99251.69;;;0.03;100.00
35435;BME280;21556;55.782;37.528;2023-01-29T14:40:44;99253.19;;;0.15;100.00
35435;BME280;21556;55.782;37.528;2023-01-29T14:43:20;99255.19;;;-0.13;100.00
35435;BME280;21556;55.782;37.528;2023-01-29T14:45:49;99259.63;;;-0.11;100.00
35435;BME280;21556;55.782;37.528;2023-01-29T14:48:38;99253.53;;;0.05;100.00
35435;BME280;21556;55.782;37.528;2023-01-29T14:51:14;99247.16;;;0.15;100.00
35435;BME280;21556;55.782;37.528;2023-01-29T14:53:47;99246.84;;;0.09;100.00
35435;BME280;21556;55.782;37.528;2023-01-29T14:56:20;99242.03;;;0.33;100.00